createdAt,value
2022-08-01T00:01:11.797Z,99.50
2022-08-01T00:03:38.446Z,99.90
2022-08-01T00:06:05.193Z,99.90
2022-08-01T00:08:32.100Z,99.90
2022-08-01T00:11:01.436Z,99.90
2022-08-01T00:13:28.825Z,99.90
2022-08-01T00:15:54.923Z,99.90
2022-08-01T00:18:20.904Z,99.90
2022-08-01T00:20:46.888Z,99.90
2022-08-01T00:23:13.129Z,99.90
2022-08-01T00:25:39.120Z,99.90
2022-08-01T00:28:05.088Z,99.90
2022-08-01T00:30:31.103Z,99.90
2022-08-01T00:32:57.064Z,99.90
2022-08-01T00:35:23.418Z,99.90
2022-08-01T00:37:49.436Z,99.90
2022-08-01T00:40:15.423Z,99.90
2022-08-01T00:42:43.656Z,99.90
2022-08-01T01:06:54.290Z,99.90
2022-08-01T01:09:20.268Z,99.90
2022-08-01T01:11:46.248Z,99.90
2022-08-01T01:14:12.265Z,99.90
2022-08-01T01:16:38.255Z,99.90
2022-08-01T01:19:04.217Z,99.90
2022-08-01T01:21:30.247Z,99.90
2022-08-01T01:23:56.223Z,99.90
2022-08-01T01:26:22.210Z,99.90
2022-08-01T01:28:48.258Z,99.90
2022-08-01T01:31:14.234Z,99.90
2022-08-01T01:33:47.255Z,99.90
2022-08-01T01:36:13.697Z,99.90
2022-08-01T01:38:40.380Z,99.90
2022-08-01T01:41:07.146Z,99.90
2022-08-01T01:43:33.708Z,99.90
2022-08-01T01:46:00.346Z,99.90
2022-08-01T01:48:27.141Z,99.90
2022-08-01T01:50:53.963Z,99.90
2022-08-01T01:53:19.965Z,99.90
2022-08-01T01:55:49.381Z,99.90
2022-08-01T01:58:15.919Z,99.90
2022-08-01T02:00:41.887Z,99.90
2022-08-01T02:03:08.085Z,99.90
2022-08-01T02:05:34.140Z,99.90
2022-08-01T02:08:00.487Z,99.90
2022-08-01T02:10:28.715Z,99.90
2022-08-01T02:12:54.913Z,99.90
2022-08-01T02:15:20.911Z,99.90
2022-08-01T02:17:46.886Z,99.90
2022-08-01T02:20:12.916Z,99.90
2022-08-01T02:22:38.905Z,99.90
2022-08-01T02:25:04.872Z,99.90
2022-08-01T02:27:30.901Z,99.90
2022-08-01T02:29:56.882Z,99.90
2022-08-01T02:32:23.237Z,99.90
2022-08-01T02:34:49.510Z,99.90
2022-08-01T02:37:16.263Z,99.90
2022-08-01T02:39:42.943Z,99.90
2022-08-01T02:42:09.133Z,99.90
2022-08-01T02:44:35.455Z,99.90
2022-08-01T02:47:01.459Z,99.90
2022-08-01T02:49:27.553Z,99.90
2022-08-01T02:51:53.583Z,99.90
2022-08-01T02:54:19.567Z,99.90
2022-08-01T02:56:45.581Z,99.90
2022-08-01T02:59:11.552Z,99.90
2022-08-01T03:01:39.868Z,99.90
2022-08-01T03:04:08.101Z,99.90
2022-08-01T03:06:34.075Z,99.90
2022-08-01T03:09:00.212Z,99.90
2022-08-01T03:11:26.235Z,99.90
2022-08-01T03:13:52.209Z,99.90
2022-08-01T03:16:18.175Z,99.90
2022-08-01T03:18:44.247Z,99.90
2022-08-01T03:21:10.223Z,99.90
2022-08-01T03:23:37.873Z,99.90
2022-08-01T03:26:04.360Z,99.90
2022-08-01T03:28:30.332Z,99.90
2022-08-01T03:30:56.899Z,99.90
2022-08-01T03:33:23.812Z,99.90
2022-08-01T03:35:49.782Z,99.90
2022-08-01T03:38:16.563Z,99.90
2022-08-01T03:40:42.864Z,99.90
2022-08-01T03:43:08.852Z,99.90
2022-08-01T03:45:34.816Z,99.90
2022-08-01T03:48:00.837Z,99.90
2022-08-01T03:50:26.802Z,99.90
2022-08-01T03:52:52.777Z,99.90
2022-08-01T03:55:18.805Z,99.90
2022-08-01T03:57:44.776Z,99.90
2022-08-01T04:00:10.793Z,99.90
2022-08-01T04:02:36.803Z,99.90
2022-08-01T04:05:02.786Z,99.90
2022-08-01T04:07:28.749Z,99.90
2022-08-01T04:09:54.776Z,99.90
2022-08-01T04:12:20.752Z,99.90
2022-08-01T04:14:46.721Z,99.90
2022-08-01T04:17:12.735Z,99.90
2022-08-01T04:19:38.698Z,99.90
2022-08-01T04:22:04.930Z,99.90
2022-08-01T04:24:31.068Z,99.90
2022-08-01T04:26:57.054Z,99.90
2022-08-01T04:29:23.452Z,99.90
2022-08-01T04:31:49.474Z,99.90
2022-08-01T04:34:15.435Z,99.90
2022-08-01T04:36:41.411Z,99.90
2022-08-01T04:39:07.433Z,99.90
2022-08-01T04:41:33.407Z,99.90
2022-08-01T04:43:59.370Z,99.90
2022-08-01T04:46:25.420Z,99.90
2022-08-01T04:48:51.460Z,99.90
2022-08-01T04:51:17.490Z,99.90
2022-08-01T04:53:43.510Z,99.90
2022-08-01T04:56:09.477Z,99.90
2022-08-01T04:58:35.455Z,99.90
2022-08-01T05:01:01.579Z,99.90
2022-08-01T05:03:27.625Z,99.90
2022-08-01T05:05:53.587Z,99.90
2022-08-01T05:08:20.543Z,99.90
2022-08-01T05:10:47.243Z,99.90
2022-08-01T05:13:13.267Z,99.90
2022-08-01T05:15:39.349Z,99.90
2022-08-01T05:18:05.323Z,99.90
2022-08-01T05:20:33.789Z,99.90
2022-08-01T05:22:59.813Z,99.90
2022-08-01T05:25:56.892Z,99.90
2022-08-01T05:28:11.800Z,99.90
2022-08-01T05:30:44.928Z,99.90
2022-08-01T05:33:10.910Z,99.90
2022-08-01T05:35:48.801Z,99.90
2022-08-01T05:38:15.288Z,99.90
2022-08-01T05:40:41.312Z,99.90
2022-08-01T05:43:07.290Z,99.90
2022-08-01T05:45:33.277Z,99.90
2022-08-01T05:47:59.340Z,99.90
2022-08-01T05:50:25.320Z,99.90
2022-08-01T05:52:51.316Z,99.90
2022-08-01T05:55:18.251Z,99.90
2022-08-01T05:57:44.269Z,99.90
2022-08-01T06:00:10.276Z,99.90
2022-08-01T06:02:36.453Z,99.90
2022-08-01T06:05:02.474Z,99.90
2022-08-01T06:07:28.455Z,99.90
2022-08-01T06:09:54.483Z,99.90
2022-08-01T06:12:20.447Z,99.90
2022-08-01T06:14:46.422Z,99.90
2022-08-01T06:17:12.451Z,99.90
2022-08-01T06:19:38.423Z,99.90
2022-08-01T06:22:04.615Z,99.90
2022-08-01T06:24:30.800Z,99.90
2022-08-01T06:26:56.780Z,99.90
2022-08-01T06:29:23.109Z,99.90
2022-08-01T06:31:49.163Z,99.90
2022-08-01T06:34:15.133Z,99.90
2022-08-01T06:36:41.099Z,99.90
2022-08-01T06:39:07.131Z,99.90
2022-08-01T06:41:33.108Z,99.90
2022-08-01T06:43:59.077Z,99.90
2022-08-01T06:46:30.535Z,99.90
2022-08-01T06:48:58.708Z,99.90
2022-08-01T06:51:24.910Z,99.90
2022-08-01T06:53:51.818Z,99.90
2022-08-01T06:56:17.819Z,99.90
2022-08-01T06:58:43.832Z,99.90
2022-08-01T07:01:09.938Z,99.90
2022-08-01T07:03:53.588Z,99.90
2022-08-01T07:06:32.415Z,99.90
2022-08-01T07:09:03.995Z,99.90
2022-08-01T07:11:33.350Z,99.90
2022-08-01T07:13:59.477Z,99.90
2022-08-01T07:16:25.457Z,99.90
2022-08-01T07:18:51.466Z,99.90
2022-08-01T07:21:40.155Z,99.90
2022-08-01T07:24:13.325Z,99.90
2022-08-01T07:26:40.771Z,99.90
2022-08-01T07:29:18.822Z,99.90
2022-08-01T07:31:45.560Z,99.90
2022-08-01T07:34:11.543Z,99.90
2022-08-01T07:36:37.576Z,99.90
2022-08-01T07:39:03.589Z,99.90
2022-08-01T07:41:53.593Z,99.90
2022-08-01T07:44:15.569Z,99.90
2022-08-01T07:46:41.646Z,99.90
2022-08-01T07:49:07.960Z,99.90
2022-08-01T07:51:34.014Z,99.90
2022-08-01T07:53:59.985Z,99.90
2022-08-01T07:56:25.962Z,99.90
2022-08-01T07:58:52.013Z,99.90
2022-08-01T08:01:18.080Z,99.90
2022-08-01T08:03:44.104Z,99.90
2022-08-01T08:06:10.495Z,99.90
2022-08-01T08:08:36.522Z,99.90
2022-08-01T08:11:02.534Z,99.90
2022-08-01T08:13:28.592Z,99.90
2022-08-01T08:15:54.556Z,99.90
2022-08-01T08:18:20.523Z,99.90
2022-08-01T08:20:46.553Z,99.90
2022-08-01T08:23:16.091Z,99.90
2022-08-01T08:26:02.094Z,99.90
2022-08-01T08:28:28.321Z,99.90
2022-08-01T08:30:54.369Z,99.90
2022-08-01T08:33:20.394Z,99.90
2022-08-01T08:35:53.862Z,99.90
2022-08-01T08:38:20.382Z,99.90
2022-08-01T08:40:54.546Z,99.20
2022-08-01T08:43:20.564Z,99.90
2022-08-01T08:45:59.666Z,99.00
2022-08-01T08:48:27.904Z,99.60
2022-08-01T08:50:54.118Z,98.90
2022-08-01T08:53:20.083Z,98.40
2022-08-01T08:55:56.285Z,98.60
2022-08-01T08:58:27.584Z,98.00
2022-08-01T09:00:57.806Z,98.50
2022-08-01T09:03:23.875Z,98.00
2022-08-01T09:05:49.904Z,99.20
2022-08-01T09:08:15.919Z,99.10
2022-08-01T09:10:41.893Z,97.80
2022-08-01T09:13:07.879Z,97.20
2022-08-01T09:15:34.084Z,96.70
2022-08-01T09:18:00.097Z,97.50
2022-08-01T09:20:26.727Z,96.30
2022-08-01T09:22:52.770Z,97.80
2022-08-01T09:25:18.749Z,97.20
2022-08-01T09:27:46.428Z,95.10
2022-08-01T09:30:12.743Z,94.70
2022-08-01T09:32:38.712Z,95.40
2022-08-01T09:35:04.732Z,93.90
2022-08-01T09:37:37.507Z,94.40
2022-08-01T09:40:03.655Z,94.10
2022-08-01T09:42:29.681Z,95.50
2022-08-01T09:44:55.728Z,93.60
2022-08-01T09:47:23.466Z,93.40
2022-08-01T09:49:52.186Z,93.40
2022-08-01T09:52:19.183Z,93.10
2022-08-01T09:54:45.869Z,93.20
2022-08-01T09:57:11.946Z,92.10
2022-08-01T09:59:57.407Z,93.30
2022-08-01T10:02:23.938Z,92.60
2022-08-01T10:04:55.792Z,92.70
2022-08-01T10:07:42.748Z,90.70
2022-08-01T10:10:10.156Z,91.00
2022-08-01T10:12:37.477Z,91.80
2022-08-01T10:15:03.456Z,90.90
2022-08-01T10:17:51.325Z,91.00
2022-08-01T10:20:30.596Z,90.70
2022-08-01T10:22:57.312Z,92.00
2022-08-01T10:25:41.938Z,91.30
2022-08-01T10:28:09.539Z,91.40
2022-08-01T10:30:36.362Z,90.50
2022-08-01T10:33:02.441Z,91.30
2022-08-01T10:35:46.593Z,90.40
2022-08-01T10:38:14.153Z,89.20
2022-08-01T10:40:40.259Z,92.50
2022-08-01T10:43:06.584Z,90.50
2022-08-01T10:45:32.636Z,88.30
2022-08-01T10:47:58.690Z,89.10
2022-08-01T10:50:25.902Z,91.00
2022-08-01T10:52:52.307Z,86.10
2022-08-01T10:55:18.332Z,90.20
2022-08-01T10:57:44.320Z,91.00
2022-08-01T11:00:18.843Z,91.40
2022-08-01T11:02:46.400Z,88.50
2022-08-01T11:05:14.280Z,88.20
2022-08-01T11:07:40.582Z,88.70
2022-08-01T11:10:14.591Z,86.70
2022-08-01T11:12:41.152Z,84.30
2022-08-01T11:15:10.089Z,84.00
2022-08-01T11:17:37.481Z,88.90
2022-08-01T11:20:04.452Z,88.40
2022-08-01T11:22:30.641Z,85.20
2022-08-01T11:24:56.624Z,89.40
2022-08-01T11:27:23.477Z,90.20
2022-08-01T11:29:49.792Z,83.60
2022-08-01T11:32:16.787Z,84.50
2022-08-01T11:34:42.815Z,83.90
2022-08-01T11:37:09.049Z,75.30
2022-08-01T11:39:38.809Z,79.70
2022-08-01T11:42:05.126Z,78.70
2022-08-01T11:44:31.275Z,72.80
2022-08-01T11:46:57.245Z,75.10
2022-08-01T11:49:24.415Z,79.00
2022-08-01T11:51:50.693Z,76.80
2022-08-01T11:54:16.668Z,74.10
2022-08-01T11:57:02.184Z,77.50
2022-08-01T11:59:29.332Z,74.30
2022-08-01T12:02:07.330Z,73.30
2022-08-01T12:04:33.687Z,72.80
2022-08-01T12:07:00.260Z,73.40
2022-08-01T12:09:26.411Z,72.90
2022-08-01T12:11:52.396Z,72.00
2022-08-01T12:14:18.372Z,71.10
2022-08-01T12:16:44.395Z,72.30
2022-08-01T12:19:11.736Z,70.00
2022-08-01T12:21:37.848Z,71.80
2022-08-01T12:24:03.878Z,71.30
2022-08-01T12:26:32.291Z,73.80
2022-08-01T12:34:12.357Z,75.90
2022-08-01T12:36:38.340Z,79.90
2022-08-01T12:39:04.315Z,78.80
2022-08-01T12:41:30.335Z,73.00
2022-08-01T12:43:56.407Z,76.60
2022-08-01T12:46:22.831Z,71.60
2022-08-01T12:48:48.960Z,73.40
2022-08-01T12:51:14.984Z,71.90
2022-08-01T12:53:41.746Z,73.60
2022-08-01T12:56:07.891Z,71.10
2022-08-01T12:58:33.868Z,71.00
2022-08-01T13:00:59.896Z,70.80
2022-08-01T13:03:25.919Z,70.00
2022-08-01T13:05:51.894Z,69.90
2022-08-01T13:08:17.870Z,67.70
2022-08-01T13:10:43.903Z,70.40
2022-08-01T13:13:09.868Z,64.80
2022-08-01T13:15:35.839Z,64.30
2022-08-01T13:18:07.624Z,66.80
2022-08-01T13:20:33.607Z,70.00
2022-08-01T13:22:59.584Z,71.00
2022-08-01T13:25:27.543Z,65.40
2022-08-01T13:27:54.193Z,68.70
2022-08-01T13:30:20.958Z,73.00
2022-08-01T13:32:46.979Z,71.00
2022-08-01T13:35:12.961Z,72.50
2022-08-01T13:37:39.340Z,72.40
2022-08-01T13:40:05.641Z,75.10
2022-08-01T13:42:31.707Z,80.10
2022-08-01T13:44:57.683Z,76.40
2022-08-01T13:47:31.564Z,76.70
2022-08-01T13:49:58.455Z,79.30
2022-08-01T13:52:24.482Z,79.50
2022-08-01T13:54:50.490Z,84.00
2022-08-01T13:57:16.928Z,82.60
2022-08-01T13:59:42.943Z,75.60
2022-08-01T14:02:09.077Z,73.30
2022-08-01T14:04:35.384Z,74.70
2022-08-01T14:07:09.593Z,73.50
2022-08-01T14:09:37.864Z,80.50
2022-08-01T14:12:23.988Z,77.80
2022-08-01T14:14:49.973Z,74.00
2022-08-01T14:17:15.967Z,77.40
2022-08-01T14:19:46.153Z,74.80
2022-08-01T14:22:12.363Z,72.20
2022-08-01T14:24:38.964Z,71.20
2022-08-01T14:27:08.633Z,68.00
2022-08-01T14:30:01.240Z,66.90
2022-08-01T14:35:11.735Z,69.20
2022-08-01T14:37:38.905Z,72.40
2022-08-01T14:40:05.030Z,76.40
2022-08-01T14:42:34.041Z,79.00
2022-08-01T14:45:00.021Z,71.50
2022-08-01T14:47:26.494Z,70.60
2022-08-01T14:49:52.559Z,70.20
2022-08-01T14:52:18.584Z,75.00
2022-08-01T14:54:44.572Z,74.60
2022-08-01T14:57:11.571Z,78.70
2022-08-01T14:59:37.536Z,74.20
2022-08-01T15:02:03.642Z,75.10
2022-08-01T15:04:29.756Z,77.80
2022-08-01T15:06:55.723Z,77.80
2022-08-01T15:09:21.734Z,80.40
2022-08-01T15:11:47.756Z,79.80
2022-08-01T15:14:13.741Z,76.50
2022-08-01T15:16:39.737Z,79.80
2022-08-01T15:19:05.739Z,83.00
2022-08-01T15:21:41.824Z,77.90
2022-08-01T15:24:08.247Z,80.00
2022-08-01T15:26:34.211Z,74.40
2022-08-01T15:29:00.187Z,74.60
2022-08-01T15:31:26.221Z,68.50
2022-08-01T15:33:54.463Z,72.00
2022-08-01T15:36:25.687Z,73.10
2022-08-01T15:38:53.404Z,74.50
2022-08-01T15:41:19.407Z,75.40
2022-08-01T15:43:45.563Z,75.40
2022-08-01T15:46:23.350Z,76.40
2022-08-01T15:48:49.449Z,76.90
2022-08-01T15:51:15.480Z,78.70
2022-08-01T15:53:41.509Z,79.10
2022-08-01T15:56:10.417Z,78.10
2022-08-01T15:58:36.383Z,77.90
2022-08-01T16:01:02.424Z,78.90
2022-08-01T16:03:28.408Z,79.50
2022-08-01T16:05:54.378Z,79.30
2022-08-01T16:08:20.396Z,78.50
2022-08-01T16:10:46.363Z,80.60
2022-08-01T16:13:12.331Z,80.90
2022-08-01T16:15:38.397Z,80.40
2022-08-01T16:18:04.384Z,80.80
2022-08-01T16:20:30.361Z,78.90
2022-08-01T16:22:56.991Z,79.50
2022-08-01T16:25:23.320Z,79.40
2022-08-01T16:27:49.310Z,79.50
2022-08-01T16:30:15.339Z,81.20
2022-08-01T16:32:47.526Z,80.90
2022-08-01T16:35:34.583Z,80.30
2022-08-01T16:38:02.515Z,81.00
2022-08-01T16:40:28.531Z,81.10
2022-08-01T16:42:54.619Z,80.80
2022-08-01T16:45:24.578Z,81.30
2022-08-01T16:47:51.572Z,80.50
2022-08-01T16:50:17.938Z,80.50
2022-08-01T16:52:53.892Z,80.90
2022-08-01T16:55:19.868Z,80.20
2022-08-01T16:57:45.845Z,80.90
2022-08-01T17:00:11.892Z,80.70
2022-08-01T17:02:47.483Z,82.20
2022-08-01T17:05:13.558Z,82.70
2022-08-01T17:07:39.549Z,81.50
2022-08-01T17:10:05.530Z,84.20
2022-08-01T17:12:31.566Z,82.80
2022-08-01T17:14:57.560Z,81.90
2022-08-01T17:17:23.537Z,83.10
2022-08-01T17:19:49.567Z,81.80
2022-08-01T17:22:16.268Z,83.40
2022-08-01T17:24:42.238Z,83.40
2022-08-01T17:27:12.489Z,83.40
2022-08-01T17:29:44.107Z,84.90
2022-08-01T17:32:11.185Z,85.70
2022-08-01T17:34:37.166Z,84.30
2022-08-01T17:37:03.249Z,84.90
2022-08-01T17:39:38.498Z,86.30
2022-08-01T17:42:05.112Z,87.60
2022-08-01T17:44:31.135Z,87.00
2022-08-01T17:46:57.118Z,87.90
2022-08-01T17:49:45.212Z,88.40
2022-08-01T17:52:09.287Z,89.70
2022-08-01T17:54:36.181Z,89.00
2022-08-01T17:57:02.163Z,90.00
2022-08-01T17:59:28.973Z,90.10
2022-08-01T18:01:54.988Z,90.10
2022-08-01T18:04:21.044Z,89.50
2022-08-01T18:07:10.580Z,90.40
2022-08-01T18:09:33.359Z,89.50
2022-08-01T18:11:59.420Z,90.70
2022-08-01T18:14:39.779Z,90.50
2022-08-01T18:17:08.276Z,90.80
2022-08-01T18:19:37.826Z,91.30
2022-08-01T18:22:04.081Z,91.40
2022-08-01T18:24:30.095Z,91.40
2022-08-01T18:26:56.091Z,91.70
2022-08-01T18:29:23.269Z,91.60
2022-08-01T18:32:08.363Z,92.00
2022-08-01T18:34:35.267Z,91.80
2022-08-01T18:37:01.232Z,91.70
2022-08-01T18:39:27.305Z,91.90
2022-08-01T18:41:56.176Z,92.40
2022-08-01T18:44:22.540Z,92.30
2022-08-01T18:46:50.236Z,92.30
2022-08-01T18:49:16.287Z,92.20
2022-08-01T18:51:44.726Z,92.70
2022-08-01T18:54:12.700Z,92.50
2022-08-01T18:56:40.069Z,92.80
2022-08-01T18:59:06.029Z,93.40
2022-08-01T19:01:33.583Z,93.50
2022-08-01T19:03:59.749Z,93.70
2022-08-01T19:06:25.735Z,93.90
2022-08-01T19:08:51.781Z,93.70
2022-08-01T19:11:17.752Z,93.70
2022-08-01T19:13:43.723Z,93.50
2022-08-01T19:16:09.743Z,93.60
2022-08-01T19:18:37.663Z,93.80
2022-08-01T19:21:03.631Z,94.30
2022-08-01T19:23:30.307Z,95.00
2022-08-01T19:25:56.316Z,95.30
2022-08-01T19:28:22.309Z,95.10
2022-08-01T19:30:53.408Z,94.70
2022-08-01T19:33:19.697Z,94.70
2022-08-01T19:35:45.679Z,94.50
2022-08-01T19:38:12.708Z,94.80
2022-08-01T19:40:38.680Z,95.30
2022-08-01T19:43:04.652Z,95.00
2022-08-01T19:45:30.708Z,95.40
2022-08-01T19:47:57.935Z,95.50
2022-08-01T19:50:24.147Z,95.40
2022-08-01T19:52:50.167Z,95.00
2022-08-01T19:55:16.138Z,96.00
2022-08-01T19:57:45.666Z,96.20
2022-08-01T20:00:24.081Z,96.40
2022-08-01T20:02:54.112Z,96.80
2022-08-01T20:13:38.974Z,97.40
2022-08-01T20:16:05.308Z,97.40
2022-08-01T20:18:31.280Z,97.60
2022-08-01T20:20:57.294Z,97.60
2022-08-01T20:23:23.275Z,98.20
2022-08-01T20:25:49.257Z,98.20
2022-08-01T20:28:15.282Z,98.50
2022-08-01T20:30:41.257Z,98.30
2022-08-01T20:33:07.245Z,98.20
2022-08-01T20:35:53.550Z,98.50
2022-08-01T20:38:19.229Z,98.90
2022-08-01T20:40:49.094Z,99.70
2022-08-01T20:43:15.069Z,99.40
2022-08-01T20:45:41.035Z,99.10
2022-08-01T20:48:07.766Z,99.70
2022-08-01T20:50:52.908Z,98.80
2022-08-01T20:53:19.826Z,99.40
2022-08-01T20:55:45.821Z,99.30
2022-08-01T20:58:11.820Z,99.10
2022-08-01T21:00:37.884Z,99.90
2022-08-01T21:03:03.881Z,99.90
2022-08-01T21:05:29.856Z,99.90
2022-08-01T21:07:55.871Z,99.90
2022-08-01T21:10:23.282Z,99.90
2022-08-01T21:12:49.282Z,99.90
2022-08-01T21:15:15.310Z,99.90
2022-08-01T21:17:41.305Z,99.90
2022-08-01T21:20:07.274Z,99.90
2022-08-01T21:22:33.304Z,99.90
2022-08-01T21:24:59.285Z,99.90
2022-08-01T21:27:33.635Z,99.90
2022-08-01T21:30:00.116Z,99.90
2022-08-01T21:32:26.114Z,99.90
2022-08-01T21:34:55.398Z,99.90
2022-08-01T21:37:21.421Z,99.90
2022-08-01T21:39:47.388Z,99.90
2022-08-01T21:42:18.306Z,99.90
2022-08-01T21:44:45.115Z,99.90
2022-08-01T21:47:11.946Z,99.90
2022-08-01T21:49:38.983Z,99.90
2022-08-01T21:52:08.644Z,99.90
2022-08-01T21:54:35.041Z,99.90
2022-08-01T21:57:01.025Z,99.90
2022-08-01T21:59:27.058Z,99.90
2022-08-01T22:01:53.322Z,99.90
2022-08-01T22:04:19.478Z,99.90
2022-08-01T22:06:45.521Z,99.90
2022-08-01T22:09:11.514Z,99.90
2022-08-01T22:11:37.493Z,99.90
2022-08-01T22:14:23.498Z,99.90
2022-08-01T22:16:49.468Z,99.90
2022-08-01T22:19:43.882Z,99.90
2022-08-01T22:22:01.438Z,99.90
2022-08-01T22:24:29.755Z,99.90
2022-08-01T22:26:55.722Z,99.90
2022-08-01T22:29:22.265Z,99.90
2022-08-01T22:31:48.246Z,99.90
2022-08-01T22:34:14.247Z,99.90
2022-08-01T22:36:40.294Z,99.90
2022-08-01T22:39:06.275Z,99.90
2022-08-01T22:42:02.140Z,99.90
2022-08-01T22:44:18.248Z,99.90
2022-08-01T22:46:51.422Z,99.90
2022-08-01T22:49:17.459Z,99.90
2022-08-01T22:51:43.583Z,99.90
2022-08-01T22:54:19.481Z,99.90
2022-08-01T22:56:45.657Z,99.90
2022-08-01T22:59:11.636Z,99.90
2022-08-01T23:01:38.156Z,99.90
2022-08-01T23:04:05.171Z,99.90
2022-08-01T23:06:31.184Z,99.90
2022-08-01T23:08:57.154Z,99.90
2022-08-01T23:11:23.172Z,99.90
2022-08-01T23:13:49.162Z,99.90
2022-08-01T23:16:17.541Z,99.90
2022-08-01T23:18:45.979Z,99.90
2022-08-01T23:21:12.282Z,99.90
2022-08-01T23:23:38.253Z,99.90
2022-08-01T23:26:04.272Z,99.90
2022-08-01T23:28:30.240Z,99.90
2022-08-01T23:30:56.210Z,99.90
2022-08-01T23:33:22.422Z,99.90
2022-08-01T23:35:48.435Z,99.90
2022-08-01T23:38:14.413Z,99.90
2022-08-01T23:40:40.424Z,99.90
2022-08-01T23:43:08.339Z,99.90
2022-08-01T23:46:03.696Z,99.90
2022-08-01T23:48:28.644Z,99.90
2022-08-01T23:50:54.669Z,99.90
2022-08-01T23:53:21.318Z,99.90
2022-08-01T23:55:47.295Z,99.90
2022-08-01T23:58:14.087Z,99.90
